sensor_id;sensor_type;location;lat;lon;timestamp;P1;durP1;ratioP1;P2;durP2;ratioP2
3841;SDS011;1936;47.074;15.336;2022-07-06T00:00:33;6.40;;;4.60;;
3841;SDS011;1936;47.074;15.336;2022-07-06T00:02:37;5.90;;;5.30;;
3841;SDS011;1936;47.074;15.336;2022-07-06T00:04:40;5.70;;;5.30;;
3841;SDS011;1936;47.074;15.336;2022-07-06T00:06:44;5.47;;;4.73;;
3841;SDS011;1936;47.074;15.336;2022-07-06T00:08:47;5.43;;;4.90;;
3841;SDS011;1936;47.074;15.336;2022-07-06T00:10:51;6.30;;;5.43;;
3841;SDS011;1936;47.074;15.336;2022-07-06T00:12:55;5.20;;;4.80;;
3841;SDS011;1936;47.074;15.336;2022-07-06T00:14:58;5.53;;;5.13;;
3841;SDS011;1936;47.074;15.336;2022-07-06T00:17:03;4.77;;;4.43;;
3841;SDS011;1936;47.074;15.336;2022-07-06T00:19:07;5.97;;;5.47;;
3841;SDS011;1936;47.074;15.336;2022-07-06T00:21:11;5.53;;;5.13;;
3841;SDS011;1936;47.074;15.336;2022-07-06T00:23:14;8.13;;;5.90;;
3841;SDS011;1936;47.074;15.336;2022-07-06T00:25:18;7.40;;;6.70;;
3841;SDS011;1936;47.074;15.336;2022-07-06T00:27:21;7.77;;;5.63;;
3841;SDS011;1936;47.074;15.336;2022-07-06T00:29:25;6.63;;;6.20;;
3841;SDS011;1936;47.074;15.336;2022-07-06T00:31:28;7.27;;;6.47;;
3841;SDS011;1936;47.074;15.336;2022-07-06T00:33:33;8.17;;;7.47;;
3841;SDS011;1936;47.074;15.336;2022-07-06T00:35:37;7.20;;;6.60;;
3841;SDS011;1936;47.074;15.336;2022-07-06T00:37:41;7.23;;;6.03;;
3841;SDS011;1936;47.074;15.336;2022-07-06T00:39:44;7.20;;;6.60;;
3841;SDS011;1936;47.074;15.336;2022-07-06T00:41:48;6.60;;;6.10;;
3841;SDS011;1936;47.074;15.336;2022-07-06T00:43:52;6.87;;;6.30;;
3841;SDS011;1936;47.074;15.336;2022-07-06T00:45:57;22.60;;;7.77;;
3841;SDS011;1936;47.074;15.336;2022-07-06T00:48:01;8.20;;;6.33;;
3841;SDS011;1936;47.074;15.336;2022-07-06T00:50:06;6.87;;;6.17;;
3841;SDS011;1936;47.074;15.336;2022-07-06T00:52:16;9.40;;;5.40;;
3841;SDS011;1936;47.074;15.336;2022-07-06T00:54:20;13.13;;;6.20;;
3841;SDS011;1936;47.074;15.336;2022-07-06T00:56:24;8.57;;;5.43;;
3841;SDS011;1936;47.074;15.336;2022-07-06T00:58:28;9.70;;;6.83;;
3841;SDS011;1936;47.074;15.336;2022-07-06T01:00:32;8.57;;;7.00;;
3841;SDS011;1936;47.074;15.336;2022-07-06T01:02:35;6.50;;;5.87;;
3841;SDS011;1936;47.074;15.336;2022-07-06T01:04:39;6.73;;;6.17;;
3841;SDS011;1936;47.074;15.336;2022-07-06T01:06:45;6.63;;;6.17;;
3841;SDS011;1936;47.074;15.336;2022-07-06T01:08:49;9.20;;;7.17;;
3841;SDS011;1936;47.074;15.336;2022-07-06T01:10:52;6.20;;;5.60;;
3841;SDS011;1936;47.074;15.336;2022-07-06T01:12:56;7.83;;;6.67;;
3841;SDS011;1936;47.074;15.336;2022-07-06T01:15:00;7.10;;;6.50;;
3841;SDS011;1936;47.074;15.336;2022-07-06T01:17:03;11.00;;;6.30;;
3841;SDS011;1936;47.074;15.336;2022-07-06T01:19:07;6.90;;;6.17;;
3841;SDS011;1936;47.074;15.336;2022-07-06T01:21:13;9.73;;;5.73;;
3841;SDS011;1936;47.074;15.336;2022-07-06T01:23:17;6.60;;;6.10;;
3841;SDS011;1936;47.074;15.336;2022-07-06T01:25:20;7.77;;;6.57;;
3841;SDS011;1936;47.074;15.336;2022-07-06T01:27:24;6.10;;;5.60;;
3841;SDS011;1936;47.074;15.336;2022-07-06T01:29:27;7.40;;;6.70;;
3841;SDS011;1936;47.074;15.336;2022-07-06T01:31:31;9.67;;;6.90;;
3841;SDS011;1936;47.074;15.336;2022-07-06T01:33:34;8.83;;;6.10;;
3841;SDS011;1936;47.074;15.336;2022-07-06T01:35:38;7.30;;;6.70;;
3841;SDS011;1936;47.074;15.336;2022-07-06T01:37:43;8.30;;;7.50;;
3841;SDS011;1936;47.074;15.336;2022-07-06T01:39:46;9.93;;;7.60;;
3841;SDS011;1936;47.074;15.336;2022-07-06T01:41:50;8.80;;;8.00;;
3841;SDS011;1936;47.074;15.336;2022-07-06T01:43:54;8.73;;;7.60;;
3841;SDS011;1936;47.074;15.336;2022-07-06T01:45:57;8.00;;;7.20;;
3841;SDS011;1936;47.074;15.336;2022-07-06T01:48:04;11.50;;;7.30;;
3841;SDS011;1936;47.074;15.336;2022-07-06T01:50:08;8.90;;;8.20;;
3841;SDS011;1936;47.074;15.336;2022-07-06T01:52:12;18.23;;;9.13;;
3841;SDS011;1936;47.074;15.336;2022-07-06T01:54:17;9.30;;;6.83;;
3841;SDS011;1936;47.074;15.336;2022-07-06T01:56:20;8.67;;;7.57;;
3841;SDS011;1936;47.074;15.336;2022-07-06T01:58:24;8.17;;;7.47;;
3841;SDS011;1936;47.074;15.336;2022-07-06T02:00:28;10.43;;;8.13;;
3841;SDS011;1936;47.074;15.336;2022-07-06T02:02:31;8.57;;;7.10;;
3841;SDS011;1936;47.074;15.336;2022-07-06T02:04:35;8.83;;;7.90;;
3841;SDS011;1936;47.074;15.336;2022-07-06T02:06:39;12.23;;;7.07;;
3841;SDS011;1936;47.074;15.336;2022-07-06T02:08:42;8.60;;;7.47;;
3841;SDS011;1936;47.074;15.336;2022-07-06T02:10:47;8.03;;;7.23;;
3841;SDS011;1936;47.074;15.336;2022-07-06T02:12:51;9.13;;;7.20;;
3841;SDS011;1936;47.074;15.336;2022-07-06T02:14:55;11.07;;;7.73;;
3841;SDS011;1936;47.074;15.336;2022-07-06T02:16:58;7.77;;;6.97;;
3841;SDS011;1936;47.074;15.336;2022-07-06T02:19:02;7.47;;;6.60;;
3841;SDS011;1936;47.074;15.336;2022-07-06T02:21:05;9.67;;;7.00;;
3841;SDS011;1936;47.074;15.336;2022-07-06T02:23:09;7.30;;;6.80;;
3841;SDS011;1936;47.074;15.336;2022-07-06T02:25:12;7.17;;;6.67;;
3841;SDS011;1936;47.074;15.336;2022-07-06T02:27:17;7.67;;;6.73;;
3841;SDS011;1936;47.074;15.336;2022-07-06T02:29:21;7.50;;;6.80;;
3841;SDS011;1936;47.074;15.336;2022-07-06T02:31:25;8.33;;;7.60;;
3841;SDS011;1936;47.074;15.336;2022-07-06T02:33:28;7.73;;;6.50;;
3841;SDS011;1936;47.074;15.336;2022-07-06T02:35:32;10.00;;;7.13;;
3841;SDS011;1936;47.074;15.336;2022-07-06T02:37:35;10.20;;;8.27;;
3841;SDS011;1936;47.074;15.336;2022-07-06T02:39:39;7.37;;;6.73;;
3841;SDS011;1936;47.074;15.336;2022-07-06T02:41:42;7.10;;;6.60;;
3841;SDS011;1936;47.074;15.336;2022-07-06T02:43:47;8.83;;;7.40;;
3841;SDS011;1936;47.074;15.336;2022-07-06T02:45:51;13.60;;;6.97;;
3841;SDS011;1936;47.074;15.336;2022-07-06T02:47:55;9.93;;;7.43;;
3841;SDS011;1936;47.074;15.336;2022-07-06T02:49:58;8.33;;;7.53;;
3841;SDS011;1936;47.074;15.336;2022-07-06T02:52:02;13.70;;;7.10;;
3841;SDS011;1936;47.074;15.336;2022-07-06T02:54:06;7.63;;;6.87;;
3841;SDS011;1936;47.074;15.336;2022-07-06T02:56:09;9.07;;;7.47;;
3841;SDS011;1936;47.074;15.336;2022-07-06T02:58:13;12.93;;;6.80;;
3841;SDS011;1936;47.074;15.336;2022-07-06T03:00:18;12.40;;;7.47;;
3841;SDS011;1936;47.074;15.336;2022-07-06T03:02:22;10.87;;;7.00;;
3841;SDS011;1936;47.074;15.336;2022-07-06T03:04:25;16.40;;;7.80;;
3841;SDS011;1936;47.074;15.336;2022-07-06T03:06:28;11.87;;;6.70;;
3841;SDS011;1936;47.074;15.336;2022-07-06T03:08:32;8.43;;;7.47;;
3841;SDS011;1936;47.074;15.336;2022-07-06T03:10:36;9.73;;;7.10;;
3841;SDS011;1936;47.074;15.336;2022-07-06T03:12:40;8.23;;;6.40;;
3841;SDS011;1936;47.074;15.336;2022-07-06T03:14:43;8.50;;;7.70;;
3841;SDS011;1936;47.074;15.336;2022-07-06T03:16:48;10.47;;;8.30;;
3841;SDS011;1936;47.074;15.336;2022-07-06T03:18:52;8.40;;;7.67;;
3841;SDS011;1936;47.074;15.336;2022-07-06T03:20:55;11.17;;;7.90;;
3841;SDS011;1936;47.074;15.336;2022-07-06T03:22:59;9.57;;;7.80;;
3841;SDS011;1936;47.074;15.336;2022-07-06T03:25:03;8.90;;;7.57;;
3841;SDS011;1936;47.074;15.336;2022-07-06T03:27:06;9.53;;;7.87;;
3841;SDS011;1936;47.074;15.336;2022-07-06T03:29:10;9.60;;;8.17;;
3841;SDS011;1936;47.074;15.336;2022-07-06T03:31:13;10.40;;;7.40;;
3841;SDS011;1936;47.074;15.336;2022-07-06T03:33:18;13.60;;;7.60;;
3841;SDS011;1936;47.074;15.336;2022-07-06T03:35:22;7.23;;;6.63;;
3841;SDS011;1936;47.074;15.336;2022-07-06T03:37:25;10.70;;;7.30;;
3841;SDS011;1936;47.074;15.336;2022-07-06T03:39:29;8.30;;;7.53;;
3841;SDS011;1936;47.074;15.336;2022-07-06T03:41:32;13.73;;;7.30;;
3841;SDS011;1936;47.074;15.336;2022-07-06T03:43:36;13.70;;;7.93;;
3841;SDS011;1936;47.074;15.336;2022-07-06T03:45:40;9.87;;;8.67;;
3841;SDS011;1936;47.074;15.336;2022-07-06T03:47:44;9.47;;;7.87;;
3841;SDS011;1936;47.074;15.336;2022-07-06T03:49:48;9.67;;;7.80;;
3841;SDS011;1936;47.074;15.336;2022-07-06T03:51:52;9.47;;;7.47;;
3841;SDS011;1936;47.074;15.336;2022-07-06T03:53:56;11.43;;;7.90;;
3841;SDS011;1936;47.074;15.336;2022-07-06T03:55:59;8.50;;;7.70;;
3841;SDS011;1936;47.074;15.336;2022-07-06T03:58:20;9.13;;;7.60;;
3841;SDS011;1936;47.074;15.336;2022-07-06T04:00:25;7.17;;;6.47;;
3841;SDS011;1936;47.074;15.336;2022-07-06T04:02:28;9.30;;;6.60;;
3841;SDS011;1936;47.074;15.336;2022-07-06T04:04:33;7.00;;;6.37;;
3841;SDS011;1936;47.074;15.336;2022-07-06T04:06:38;7.70;;;6.73;;
3841;SDS011;1936;47.074;15.336;2022-07-06T04:08:42;6.43;;;5.60;;
3841;SDS011;1936;47.074;15.336;2022-07-06T04:10:46;8.23;;;6.23;;
3841;SDS011;1936;47.074;15.336;2022-07-06T04:12:49;8.37;;;6.10;;
3841;SDS011;1936;47.074;15.336;2022-07-06T04:14:56;8.67;;;5.10;;
3841;SDS011;1936;47.074;15.336;2022-07-06T04:17:00;9.40;;;5.37;;
3841;SDS011;1936;47.074;15.336;2022-07-06T04:19:24;6.27;;;5.07;;
3841;SDS011;1936;47.074;15.336;2022-07-06T04:21:28;5.90;;;5.40;;
3841;SDS011;1936;47.074;15.336;2022-07-06T04:23:34;7.70;;;5.10;;
3841;SDS011;1936;47.074;15.336;2022-07-06T04:25:37;5.47;;;4.97;;
3841;SDS011;1936;47.074;15.336;2022-07-06T04:27:41;5.20;;;4.80;;
3841;SDS011;1936;47.074;15.336;2022-07-06T04:29:45;7.93;;;5.30;;
3841;SDS011;1936;47.074;15.336;2022-07-06T04:31:48;11.07;;;5.00;;
3841;SDS011;1936;47.074;15.336;2022-07-06T04:33:52;6.20;;;5.70;;
3841;SDS011;1936;47.074;15.336;2022-07-06T04:35:55;6.27;;;5.70;;
3841;SDS011;1936;47.074;15.336;2022-07-06T04:37:59;6.03;;;5.00;;
3841;SDS011;1936;47.074;15.336;2022-07-06T04:40:05;9.13;;;5.70;;
3841;SDS011;1936;47.074;15.336;2022-07-06T04:42:14;5.80;;;4.90;;
3841;SDS011;1936;47.074;15.336;2022-07-06T04:44:18;5.33;;;4.90;;
3841;SDS011;1936;47.074;15.336;2022-07-06T04:46:21;5.47;;;4.97;;
3841;SDS011;1936;47.074;15.336;2022-07-06T04:48:26;5.80;;;5.10;;
3841;SDS011;1936;47.074;15.336;2022-07-06T04:50:29;9.20;;;5.30;;
3841;SDS011;1936;47.074;15.336;2022-07-06T04:52:40;5.70;;;5.00;;
3841;SDS011;1936;47.074;15.336;2022-07-06T04:54:43;6.00;;;5.40;;
3841;SDS011;1936;47.074;15.336;2022-07-06T04:56:48;7.23;;;5.60;;
3841;SDS011;1936;47.074;15.336;2022-07-06T04:58:52;5.67;;;5.03;;
3841;SDS011;1936;47.074;15.336;2022-07-06T05:00:56;8.60;;;5.60;;
3841;SDS011;1936;47.074;15.336;2022-07-06T05:02:59;6.60;;;5.37;;
3841;SDS011;1936;47.074;15.336;2022-07-06T05:05:03;5.80;;;5.20;;
3841;SDS011;1936;47.074;15.336;2022-07-06T05:07:06;9.07;;;4.63;;
3841;SDS011;1936;47.074;15.336;2022-07-06T05:09:10;6.90;;;4.50;;
3841;SDS011;1936;47.074;15.336;2022-07-06T05:11:13;4.83;;;3.97;;
3841;SDS011;1936;47.074;15.336;2022-07-06T05:13:18;4.57;;;4.17;;
3841;SDS011;1936;47.074;15.336;2022-07-06T05:15:22;5.20;;;4.77;;
3841;SDS011;1936;47.074;15.336;2022-07-06T05:17:26;4.60;;;4.13;;
3841;SDS011;1936;47.074;15.336;2022-07-06T05:19:30;6.53;;;4.37;;
3841;SDS011;1936;47.074;15.336;2022-07-06T05:21:34;5.50;;;4.00;;
3841;SDS011;1936;47.074;15.336;2022-07-06T05:23:37;7.23;;;3.50;;
3841;SDS011;1936;47.074;15.336;2022-07-06T05:25:41;6.10;;;4.00;;
3841;SDS011;1936;47.074;15.336;2022-07-06T05:27:45;3.13;;;2.93;;
3841;SDS011;1936;47.074;15.336;2022-07-06T05:29:50;4.90;;;4.17;;
3841;SDS011;1936;47.074;15.336;2022-07-06T05:31:53;4.00;;;3.50;;
3841;SDS011;1936;47.074;15.336;2022-07-06T05:33:57;4.67;;;3.70;;
3841;SDS011;1936;47.074;15.336;2022-07-06T05:36:00;4.70;;;4.30;;
3841;SDS011;1936;47.074;15.336;2022-07-06T05:38:04;4.90;;;4.23;;
3841;SDS011;1936;47.074;15.336;2022-07-06T05:40:08;5.80;;;3.97;;
3841;SDS011;1936;47.074;15.336;2022-07-06T05:42:11;3.80;;;3.43;;
3841;SDS011;1936;47.074;15.336;2022-07-06T05:44:15;5.57;;;4.90;;
3841;SDS011;1936;47.074;15.336;2022-07-06T05:46:20;7.50;;;3.70;;
3841;SDS011;1936;47.074;15.336;2022-07-06T05:48:24;4.37;;;3.97;;
3841;SDS011;1936;47.074;15.336;2022-07-06T05:50:45;3.87;;;3.30;;
3841;SDS011;1936;47.074;15.336;2022-07-06T05:52:55;8.17;;;3.70;;
3841;SDS011;1936;47.074;15.336;2022-07-06T05:54:58;4.47;;;3.87;;
3841;SDS011;1936;47.074;15.336;2022-07-06T05:57:02;3.60;;;3.30;;
3841;SDS011;1936;47.074;15.336;2022-07-06T05:59:06;4.07;;;3.07;;
3841;SDS011;1936;47.074;15.336;2022-07-06T06:01:09;4.20;;;3.70;;
3841;SDS011;1936;47.074;15.336;2022-07-06T06:03:14;9.03;;;4.23;;
3841;SDS011;1936;47.074;15.336;2022-07-06T06:05:18;4.73;;;3.30;;
3841;SDS011;1936;47.074;15.336;2022-07-06T06:07:25;3.23;;;2.93;;
3841;SDS011;1936;47.074;15.336;2022-07-06T06:09:28;3.87;;;3.57;;
3841;SDS011;1936;47.074;15.336;2022-07-06T06:11:32;3.33;;;3.00;;
3841;SDS011;1936;47.074;15.336;2022-07-06T06:13:36;3.10;;;2.90;;
3841;SDS011;1936;47.074;15.336;2022-07-06T06:15:39;3.23;;;2.87;;
3841;SDS011;1936;47.074;15.336;2022-07-06T06:17:43;5.60;;;3.10;;
3841;SDS011;1936;47.074;15.336;2022-07-06T06:19:48;4.23;;;2.70;;
3841;SDS011;1936;47.074;15.336;2022-07-06T06:21:52;3.40;;;3.10;;
3841;SDS011;1936;47.074;15.336;2022-07-06T06:23:55;8.73;;;3.47;;
3841;SDS011;1936;47.074;15.336;2022-07-06T06:25:58;13.50;;;4.70;;
3841;SDS011;1936;47.074;15.336;2022-07-06T06:28:02;6.53;;;3.23;;
3841;SDS011;1936;47.074;15.336;2022-07-06T06:30:07;7.13;;;2.77;;
3841;SDS011;1936;47.074;15.336;2022-07-06T06:32:11;4.80;;;2.83;;
3841;SDS011;1936;47.074;15.336;2022-07-06T06:34:14;6.60;;;3.73;;
3841;SDS011;1936;47.074;15.336;2022-07-06T06:36:19;3.60;;;2.37;;
3841;SDS011;1936;47.074;15.336;2022-07-06T06:38:23;4.40;;;2.63;;
3841;SDS011;1936;47.074;15.336;2022-07-06T06:40:29;10.10;;;2.83;;
3841;SDS011;1936;47.074;15.336;2022-07-06T06:42:35;2.40;;;2.20;;
3841;SDS011;1936;47.074;15.336;2022-07-06T06:44:38;4.37;;;1.97;;
3841;SDS011;1936;47.074;15.336;2022-07-06T06:46:42;2.50;;;1.50;;
3841;SDS011;1936;47.074;15.336;2022-07-06T06:48:46;2.93;;;2.00;;
3841;SDS011;1936;47.074;15.336;2022-07-06T06:50:49;7.70;;;2.03;;
3841;SDS011;1936;47.074;15.336;2022-07-06T06:52:54;6.10;;;2.00;;
3841;SDS011;1936;47.074;15.336;2022-07-06T06:54:58;6.30;;;1.90;;
3841;SDS011;1936;47.074;15.336;2022-07-06T06:57:02;2.07;;;1.40;;
3841;SDS011;1936;47.074;15.336;2022-07-06T06:59:05;2.93;;;1.80;;
3841;SDS011;1936;47.074;15.336;2022-07-06T07:01:18;2.23;;;1.90;;
3841;SDS011;1936;47.074;15.336;2022-07-06T07:03:22;2.00;;;1.50;;
3841;SDS011;1936;47.074;15.336;2022-07-06T07:05:25;2.60;;;1.60;;
3841;SDS011;1936;47.074;15.336;2022-07-06T07:07:28;1.47;;;1.10;;
3841;SDS011;1936;47.074;15.336;2022-07-06T07:09:33;1.70;;;1.30;;
3841;SDS011;1936;47.074;15.336;2022-07-06T07:11:36;2.40;;;1.67;;
3841;SDS011;1936;47.074;15.336;2022-07-06T07:13:40;1.67;;;1.53;;
3841;SDS011;1936;47.074;15.336;2022-07-06T07:15:43;1.90;;;1.30;;
3841;SDS011;1936;47.074;15.336;2022-07-06T07:17:46;2.23;;;1.57;;
3841;SDS011;1936;47.074;15.336;2022-07-06T07:19:50;3.03;;;1.70;;
3841;SDS011;1936;47.074;15.336;2022-07-06T07:21:53;1.93;;;1.70;;
3841;SDS011;1936;47.074;15.336;2022-07-06T07:23:56;2.47;;;1.70;;
3841;SDS011;1936;47.074;15.336;2022-07-06T07:26:01;1.57;;;0.90;;
3841;SDS011;1936;47.074;15.336;2022-07-06T07:28:04;2.70;;;1.80;;
3841;SDS011;1936;47.074;15.336;2022-07-06T07:30:08;1.40;;;1.10;;
3841;SDS011;1936;47.074;15.336;2022-07-06T07:32:12;1.53;;;1.27;;
3841;SDS011;1936;47.074;15.336;2022-07-06T07:34:15;1.93;;;1.00;;
3841;SDS011;1936;47.074;15.336;2022-07-06T07:36:19;3.10;;;1.57;;
3841;SDS011;1936;47.074;15.336;2022-07-06T07:38:22;1.90;;;1.30;;
3841;SDS011;1936;47.074;15.336;2022-07-06T07:40:27;6.10;;;1.40;;
3841;SDS011;1936;47.074;15.336;2022-07-06T07:42:32;1.90;;;1.07;;
3841;SDS011;1936;47.074;15.336;2022-07-06T07:44:35;4.23;;;1.70;;
3841;SDS011;1936;47.074;15.336;2022-07-06T07:46:40;1.73;;;1.57;;
3841;SDS011;1936;47.074;15.336;2022-07-06T07:48:43;2.30;;;1.00;;
3841;SDS011;1936;47.074;15.336;2022-07-06T07:50:47;1.77;;;1.40;;
3841;SDS011;1936;47.074;15.336;2022-07-06T07:52:50;1.93;;;1.47;;
3841;SDS011;1936;47.074;15.336;2022-07-06T07:54:53;3.60;;;1.30;;
3841;SDS011;1936;47.074;15.336;2022-07-06T07:57:17;2.10;;;1.30;;
3841;SDS011;1936;47.074;15.336;2022-07-06T07:59:21;2.20;;;1.47;;
3841;SDS011;1936;47.074;15.336;2022-07-06T08:01:25;1.30;;;0.97;;
3841;SDS011;1936;47.074;15.336;2022-07-06T08:03:28;2.00;;;1.07;;
3841;SDS011;1936;47.074;15.336;2022-07-06T08:05:32;2.30;;;1.20;;
3841;SDS011;1936;47.074;15.336;2022-07-06T08:07:36;1.57;;;1.20;;
3841;SDS011;1936;47.074;15.336;2022-07-06T08:09:42;1.53;;;0.90;;
3841;SDS011;1936;47.074;15.336;2022-07-06T08:11:45;4.30;;;1.17;;
3841;SDS011;1936;47.074;15.336;2022-07-06T08:13:48;1.20;;;0.83;;
3841;SDS011;1936;47.074;15.336;2022-07-06T08:15:53;1.30;;;1.17;;
3841;SDS011;1936;47.074;15.336;2022-07-06T08:17:56;3.90;;;1.57;;
3841;SDS011;1936;47.074;15.336;2022-07-06T08:20:00;3.97;;;1.40;;
3841;SDS011;1936;47.074;15.336;2022-07-06T08:22:03;1.87;;;1.30;;
3841;SDS011;1936;47.074;15.336;2022-07-06T08:24:08;3.57;;;1.20;;
3841;SDS011;1936;47.074;15.336;2022-07-06T08:26:12;1.00;;;0.90;;
3841;SDS011;1936;47.074;15.336;2022-07-06T08:28:18;3.93;;;1.93;;
3841;SDS011;1936;47.074;15.336;2022-07-06T08:30:21;2.50;;;1.73;;
3841;SDS011;1936;47.074;15.336;2022-07-06T08:32:26;2.30;;;1.30;;
3841;SDS011;1936;47.074;15.336;2022-07-06T08:34:49;2.23;;;1.30;;
3841;SDS011;1936;47.074;15.336;2022-07-06T08:36:54;0.87;;;0.83;;
3841;SDS011;1936;47.074;15.336;2022-07-06T08:38:57;1.10;;;1.00;;
3841;SDS011;1936;47.074;15.336;2022-07-06T08:41:01;1.57;;;1.37;;
3841;SDS011;1936;47.074;15.336;2022-07-06T08:43:08;1.30;;;0.80;;
3841;SDS011;1936;47.074;15.336;2022-07-06T08:45:11;1.57;;;1.20;;
3841;SDS011;1936;47.074;15.336;2022-07-06T08:47:16;2.37;;;1.23;;
3841;SDS011;1936;47.074;15.336;2022-07-06T08:49:22;2.83;;;1.03;;
3841;SDS011;1936;47.074;15.336;2022-07-06T08:51:26;2.43;;;1.40;;
3841;SDS011;1936;47.074;15.336;2022-07-06T08:53:31;3.40;;;1.33;;
3841;SDS011;1936;47.074;15.336;2022-07-06T08:55:34;2.93;;;0.90;;
3841;SDS011;1936;47.074;15.336;2022-07-06T08:57:38;1.10;;;0.77;;
3841;SDS011;1936;47.074;15.336;2022-07-06T08:59:41;2.17;;;0.80;;
3841;SDS011;1936;47.074;15.336;2022-07-06T09:01:45;3.70;;;0.97;;
3841;SDS011;1936;47.074;15.336;2022-07-06T09:03:49;3.67;;;1.20;;
3841;SDS011;1936;47.074;15.336;2022-07-06T09:05:56;1.30;;;0.73;;
3841;SDS011;1936;47.074;15.336;2022-07-06T09:08:03;1.80;;;0.90;;
3841;SDS011;1936;47.074;15.336;2022-07-06T09:10:07;3.50;;;0.90;;
3841;SDS011;1936;47.074;15.336;2022-07-06T09:12:11;1.10;;;0.70;;
3841;SDS011;1936;47.074;15.336;2022-07-06T09:14:15;1.87;;;0.80;;
3841;SDS011;1936;47.074;15.336;2022-07-06T09:16:24;2.83;;;0.87;;
3841;SDS011;1936;47.074;15.336;2022-07-06T09:18:39;1.47;;;0.90;;
3841;SDS011;1936;47.074;15.336;2022-07-06T09:20:46;2.33;;;1.00;;
3841;SDS011;1936;47.074;15.336;2022-07-06T09:22:50;1.20;;;0.90;;
3841;SDS011;1936;47.074;15.336;2022-07-06T09:25:04;1.57;;;0.97;;
3841;SDS011;1936;47.074;15.336;2022-07-06T09:27:15;3.73;;;0.80;;
3841;SDS011;1936;47.074;15.336;2022-07-06T09:29:24;3.87;;;1.10;;
3841;SDS011;1936;47.074;15.336;2022-07-06T09:31:29;2.57;;;1.17;;
3841;SDS011;1936;47.074;15.336;2022-07-06T09:33:33;1.03;;;0.60;;
3841;SDS011;1936;47.074;15.336;2022-07-06T09:35:38;1.20;;;0.70;;
3841;SDS011;1936;47.074;15.336;2022-07-06T09:37:41;4.63;;;0.70;;
3841;SDS011;1936;47.074;15.336;2022-07-06T09:39:46;1.23;;;0.80;;
3841;SDS011;1936;47.074;15.336;2022-07-06T09:41:50;2.57;;;1.13;;
3841;SDS011;1936;47.074;15.336;2022-07-06T09:43:54;2.60;;;0.80;;
3841;SDS011;1936;47.074;15.336;2022-07-06T09:45:57;1.80;;;0.90;;
3841;SDS011;1936;47.074;15.336;2022-07-06T09:48:04;1.13;;;0.70;;
3841;SDS011;1936;47.074;15.336;2022-07-06T09:50:09;1.67;;;1.00;;
3841;SDS011;1936;47.074;15.336;2022-07-06T09:52:12;1.63;;;0.87;;
3841;SDS011;1936;47.074;15.336;2022-07-06T09:54:16;1.40;;;0.80;;
3841;SDS011;1936;47.074;15.336;2022-07-06T09:56:21;1.40;;;0.87;;
3841;SDS011;1936;47.074;15.336;2022-07-06T09:58:38;3.27;;;0.90;;
3841;SDS011;1936;47.074;15.336;2022-07-06T10:01:01;2.60;;;1.00;;
3841;SDS011;1936;47.074;15.336;2022-07-06T10:03:05;7.30;;;1.13;;
3841;SDS011;1936;47.074;15.336;2022-07-06T10:05:09;2.00;;;0.87;;
3841;SDS011;1936;47.074;15.336;2022-07-06T10:07:12;2.30;;;1.20;;
3841;SDS011;1936;47.074;15.336;2022-07-06T10:09:18;1.30;;;0.80;;
3841;SDS011;1936;47.074;15.336;2022-07-06T10:11:23;1.40;;;1.00;;
3841;SDS011;1936;47.074;15.336;2022-07-06T10:13:27;1.83;;;0.80;;
3841;SDS011;1936;47.074;15.336;2022-07-06T10:15:33;1.30;;;0.90;;
3841;SDS011;1936;47.074;15.336;2022-07-06T10:17:37;1.53;;;0.70;;
3841;SDS011;1936;47.074;15.336;2022-07-06T10:19:42;4.60;;;1.53;;
3841;SDS011;1936;47.074;15.336;2022-07-06T10:21:46;2.87;;;1.00;;
3841;SDS011;1936;47.074;15.336;2022-07-06T10:23:51;3.60;;;0.70;;
3841;SDS011;1936;47.074;15.336;2022-07-06T10:25:56;1.90;;;0.90;;
3841;SDS011;1936;47.074;15.336;2022-07-06T10:28:02;6.03;;;1.00;;
3841;SDS011;1936;47.074;15.336;2022-07-06T10:30:12;1.77;;;0.90;;
3841;SDS011;1936;47.074;15.336;2022-07-06T10:32:17;1.10;;;0.90;;
3841;SDS011;1936;47.074;15.336;2022-07-06T10:34:21;1.43;;;1.17;;
3841;SDS011;1936;47.074;15.336;2022-07-06T10:36:25;3.63;;;1.07;;
3841;SDS011;1936;47.074;15.336;2022-07-06T10:38:32;3.03;;;1.10;;
3841;SDS011;1936;47.074;15.336;2022-07-06T10:40:39;2.43;;;1.40;;
3841;SDS011;1936;47.074;15.336;2022-07-06T10:43:02;1.17;;;0.80;;
3841;SDS011;1936;47.074;15.336;2022-07-06T10:45:06;2.10;;;1.13;;
3841;SDS011;1936;47.074;15.336;2022-07-06T10:47:10;1.30;;;0.93;;
3841;SDS011;1936;47.074;15.336;2022-07-06T10:49:14;2.33;;;0.70;;
3841;SDS011;1936;47.074;15.336;2022-07-06T10:51:38;4.30;;;1.10;;
3841;SDS011;1936;47.074;15.336;2022-07-06T10:53:43;1.63;;;0.83;;
3841;SDS011;1936;47.074;15.336;2022-07-06T10:55:47;3.47;;;0.90;;
3841;SDS011;1936;47.074;15.336;2022-07-06T10:57:53;0.93;;;0.77;;
3841;SDS011;1936;47.074;15.336;2022-07-06T11:00:02;3.60;;;1.10;;
3841;SDS011;1936;47.074;15.336;2022-07-06T11:02:13;1.20;;;0.80;;
3841;SDS011;1936;47.074;15.336;2022-07-06T11:04:17;3.07;;;0.90;;
3841;SDS011;1936;47.074;15.336;2022-07-06T11:06:21;2.40;;;0.80;;
3841;SDS011;1936;47.074;15.336;2022-07-06T11:08:40;1.87;;;1.00;;
3841;SDS011;1936;47.074;15.336;2022-07-06T11:10:48;2.90;;;0.80;;
3841;SDS011;1936;47.074;15.336;2022-07-06T11:12:58;2.03;;;0.90;;
3841;SDS011;1936;47.074;15.336;2022-07-06T11:15:03;1.60;;;0.80;;
3841;SDS011;1936;47.074;15.336;2022-07-06T11:17:09;1.63;;;1.07;;
3841;SDS011;1936;47.074;15.336;2022-07-06T11:19:14;1.63;;;1.00;;
3841;SDS011;1936;47.074;15.336;2022-07-06T11:21:19;2.93;;;1.17;;
3841;SDS011;1936;47.074;15.336;2022-07-06T11:23:23;1.57;;;1.00;;
3841;SDS011;1936;47.074;15.336;2022-07-06T11:25:29;2.20;;;1.23;;
3841;SDS011;1936;47.074;15.336;2022-07-06T11:27:33;2.50;;;1.17;;
3841;SDS011;1936;47.074;15.336;2022-07-06T11:29:37;1.27;;;0.73;;
3841;SDS011;1936;47.074;15.336;2022-07-06T11:31:43;1.73;;;0.73;;
3841;SDS011;1936;47.074;15.336;2022-07-06T11:33:47;1.97;;;0.90;;
3841;SDS011;1936;47.074;15.336;2022-07-06T11:35:51;1.17;;;1.00;;
3841;SDS011;1936;47.074;15.336;2022-07-06T11:37:54;3.63;;;0.97;;
3841;SDS011;1936;47.074;15.336;2022-07-06T11:39:58;2.00;;;0.97;;
3841;SDS011;1936;47.074;15.336;2022-07-06T11:42:10;2.73;;;1.30;;
3841;SDS011;1936;47.074;15.336;2022-07-06T11:44:13;1.47;;;0.97;;
3841;SDS011;1936;47.074;15.336;2022-07-06T11:46:20;1.30;;;1.10;;
3841;SDS011;1936;47.074;15.336;2022-07-06T11:48:26;2.60;;;0.87;;
3841;SDS011;1936;47.074;15.336;2022-07-06T11:50:29;1.27;;;0.93;;
3841;SDS011;1936;47.074;15.336;2022-07-06T11:52:33;2.97;;;1.53;;
3841;SDS011;1936;47.074;15.336;2022-07-06T11:54:37;1.80;;;0.90;;
3841;SDS011;1936;47.074;15.336;2022-07-06T11:56:45;1.20;;;0.80;;
3841;SDS011;1936;47.074;15.336;2022-07-06T11:58:49;1.20;;;0.70;;
3841;SDS011;1936;47.074;15.336;2022-07-06T12:03:15;1.00;;;0.70;;
3841;SDS011;1936;47.074;15.336;2022-07-06T12:05:31;2.63;;;1.00;;
3841;SDS011;1936;47.074;15.336;2022-07-06T12:07:34;1.70;;;1.20;;
3841;SDS011;1936;47.074;15.336;2022-07-06T12:09:39;1.57;;;1.30;;
3841;SDS011;1936;47.074;15.336;2022-07-06T12:11:44;3.10;;;1.10;;
3841;SDS011;1936;47.074;15.336;2022-07-06T12:13:48;2.70;;;1.03;;
3841;SDS011;1936;47.074;15.336;2022-07-06T12:15:51;1.57;;;1.03;;
3841;SDS011;1936;47.074;15.336;2022-07-06T12:17:55;1.20;;;0.90;;
3841;SDS011;1936;47.074;15.336;2022-07-06T12:19:58;2.87;;;1.27;;
3841;SDS011;1936;47.074;15.336;2022-07-06T12:22:04;2.33;;;1.00;;
3841;SDS011;1936;47.074;15.336;2022-07-06T12:24:08;1.37;;;1.10;;
3841;SDS011;1936;47.074;15.336;2022-07-06T12:26:11;1.43;;;0.70;;
3841;SDS011;1936;47.074;15.336;2022-07-06T12:28:22;1.00;;;0.80;;
3841;SDS011;1936;47.074;15.336;2022-07-06T12:30:25;1.00;;;0.80;;
3841;SDS011;1936;47.074;15.336;2022-07-06T12:32:29;1.60;;;1.00;;
3841;SDS011;1936;47.074;15.336;2022-07-06T12:34:32;1.40;;;1.13;;
3841;SDS011;1936;47.074;15.336;2022-07-06T12:36:41;2.57;;;1.33;;
3841;SDS011;1936;47.074;15.336;2022-07-06T12:38:47;1.60;;;1.00;;
3841;SDS011;1936;47.074;15.336;2022-07-06T12:40:51;1.87;;;0.80;;
3841;SDS011;1936;47.074;15.336;2022-07-06T12:42:55;3.30;;;1.10;;
3841;SDS011;1936;47.074;15.336;2022-07-06T12:44:58;3.27;;;0.80;;